Hlavní strana
METAR-TAF:

METAR-TAF

Letiště :

Letecká základna Aviano

Aviano, Itálie

zeměpisná šířka: 46-02N, zeměpisná délka: 012-36E, výška: 128 m

Aktuální stav počasí

Zpráva byla vytvořena před 46 minutami, v 17:55 UTC
Východní vítr 5 kt
Teplota 5°C
Vlhkost vzduchu 75%
Tlak 1016 hPa
Viditelnost 10 km a více
Skoro jasno ve výšce 1500 ft
Oblačno až skoro zataženo ve výšce 4000 ft

METAR: LIPA 181755Z 09005KT 9999 FEW015 BKN040 05/01 Q1016 RMK BKN VIS MIN 9999 WIND THR05 11004KT WIND THR23 09005KT A3001 BLU

Čas: 19:41 (18:41 UTC)

Předpověď počasí

Zpráva byla vytvořena před 1 hodinou a 41 minutami, v 17:00 UTC
Předpověď platná od 18 v 18 UTC do 19 v 03 UTC
Východoseverovýchodní vítr 5 kt
Viditelnost 10 km a více
Skoro jasno ve výšce 1500 ft
Oblačno až skoro zataženo ve výšce 4000 ft

TAF: LIPA 181700Z 1818/1903 06005KT 9999 FEW015 BKN040

Stav a předpovědi počasí z více než 4 000 letišť (zprávy METAR a TAF).

Červené a žluté tečky na mapě představují dostupné meteorologické stanice.

Když kurzor umístíte na tečku, zobrazí se název stanice.

Pak kliknutím zobrazíte stav a předpověď počasí.

Chcete-li změnit mapu, kliknutím na zelené tlačítko se znaménkem +mapu přiblížíte, kliknutím na zelené tlačítko se znaménkem – mapu oddálíte a kliknutím na zelené šipky přejdete na sousední mapy.


METAR-TAF: